Terminal Aerodrome Forecast
Issued by NWS Paducah, KY

Home | Current Version | Previous Version | Text Only | Print | Product List | Glossary On
Versions: 1 2 3 4 5 6 7 8 9 10 11 12 13 14 15 16 17
000
FTUS43 KPAH 211700
TAFEVV
TAF
KEVV 211720Z 2118/2218 32012G18KT P6SM SKC
     FM220000 33005KT P6SM SKC
     FM220300 33004KT P6SM SCT025
     FM221500 02006KT P6SM SCT030=

USA.gov is the U.S. government's official web portal to all federal, state and local government web resources and services.